Time;durP1;ratioP1;P1;durP2;ratioP2;P2;SDS_P1;SDS_P2;PMS_P1;PMS_P2;Temp;Humidity;BMP_temperature;BMP_pressure;BME280_temperature;BME280_humidity;BME280_pressure;Samples;Min_cycle;Max_cycle;Signal;HPM_P1;HPM_P2
2023/01/01 00:01:46;;;;;;;;;3.67;3.33;;;;;15.89;49.24;101029.66;4973813;28;45375;-50
2023/01/01 00:04:14;;;;;;;;;3.00;3.00;;;;;15.89;49.49;101026.97;4974437;28;49357;-43
2023/01/01 00:06:40;;;;;;;;;3.00;3.00;;;;;15.85;49.18;101031.84;4974895;28;45243;-46
2023/01/01 00:11:49;;;;;;;;;6.00;3.00;;;;;15.90;49.65;101025.94;4974815;28;45356;-50
2023/01/01 00:14:14;;;;;;;;;5.67;4.00;;;;;15.90;49.61;101020.56;4974589;28;48940;-51
2023/01/01 00:16:39;;;;;;;;;5.00;3.00;;;;;15.89;49.91;101024.28;4974626;28;45500;-47
2023/01/01 00:19:05;;;;;;;;;2.00;2.00;;;;;15.90;50.28;101031.31;4974719;28;45232;-51
2023/01/01 00:21:30;;;;;;;;;4.00;4.00;;;;;15.89;50.21;101040.38;4974974;28;45544;-52
2023/01/01 00:23:55;;;;;;;;;3.67;3.67;;;;;15.89;50.48;101035.00;4975400;28;51333;-47
2023/01/01 00:26:21;;;;;;;;;8.00;4.00;;;;;15.86;50.41;101029.97;4974675;28;45457;-54
2023/01/01 00:28:46;;;;;;;;;6.33;3.00;;;;;15.87;50.49;101037.84;4974563;28;45299;-53
2023/01/01 00:31:18;;;;;;;;;6.00;4.33;;;;;15.87;50.61;101034.34;4974630;28;45596;-52
2023/01/01 00:33:53;;;;;;;;;9.67;4.00;;;;;15.86;50.66;101038.03;4974338;28;46114;-55
2023/01/01 00:36:21;;;;;;;;;6.67;4.67;;;;;15.88;50.69;101042.19;4974346;28;45387;-54
2023/01/01 00:38:46;;;;;;;;;5.00;4.00;;;;;15.86;50.63;101029.97;4974419;28;45241;-55
2023/01/01 00:41:13;;;;;;;;;4.00;4.00;;;;;15.86;51.00;101032.66;4974869;28;45348;-49
2023/01/01 00:43:39;;;;;;;;;2.33;2.33;;;;;15.86;51.34;101038.03;4974220;28;46164;-52
2023/01/01 00:46:06;;;;;;;;;4.33;3.00;;;;;15.85;51.19;101026.47;4973995;28;45659;-48
2023/01/01 00:48:31;;;;;;;;;8.67;4.67;;;;;15.84;51.12;101019.41;4974406;28;45379;-46
2023/01/01 00:50:57;;;;;;;;;2.33;2.33;;;;;15.78;51.33;101005.88;4974387;28;45369;-52
2023/01/01 00:53:23;;;;;;;;;4.33;4.33;;;;;15.83;51.37;101033.84;4974080;28;47305;-54
2023/01/01 00:55:49;;;;;;;;;3.00;3.00;;;;;15.84;51.37;101032.81;4973866;28;45320;-53
2023/01/01 00:58:16;;;;;;;;;8.33;4.33;;;;;15.76;51.48;101043.59;4973948;28;45326;-54
2023/01/01 01:00:42;;;;;;;;;5.00;4.67;;;;;15.84;51.65;101023.94;4974355;28;45287;-51
2023/01/01 01:03:09;;;;;;;;;3.67;3.00;;;;;15.83;51.76;101015.06;4973655;28;45922;-52
2023/01/01 01:05:37;;;;;;;;;6.67;3.67;;;;;15.81;51.89;101011.72;4973684;28;45303;-50
2023/01/01 01:08:02;;;;;;;;;4.00;2.33;;;;;15.75;51.91;101016.94;4975042;28;45326;-56
2023/01/01 01:10:28;;;;;;;;;3.00;3.00;;;;;15.80;52.01;101028.84;4973954;28;45416;-51
2023/01/01 01:12:54;;;;;;;;;4.33;4.33;;;;;15.82;51.98;101025.97;4973872;28;46020;-51
2023/01/01 01:15:20;;;;;;;;;4.00;4.00;;;;;15.82;52.31;101031.34;4974095;28;45309;-58
2023/01/01 01:17:45;;;;;;;;;8.33;4.00;;;;;15.82;52.03;101029.50;4977038;28;45356;-50
2023/01/01 01:20:11;;;;;;;;;5.00;5.00;;;;;15.83;52.37;101022.28;4977073;28;45438;-52
2023/01/01 01:22:37;;;;;;;;;6.33;5.00;;;;;15.80;52.20;101031.53;4976735;28;45401;-51
2023/01/01 01:25:04;;;;;;;;;6.00;4.00;;;;;15.85;52.26;101036.38;4976760;28;45240;-55
2023/01/01 01:27:29;;;;;;;;;4.33;4.33;;;;;15.84;52.38;101048.91;4976857;28;45332;-50
2023/01/01 01:29:55;;;;;;;;;6.33;5.00;;;;;15.84;52.44;101051.59;4977037;28;45280;-51
2023/01/01 01:32:20;;;;;;;;;6.33;4.00;;;;;15.84;52.73;101050.75;4976411;28;48597;-52
2023/01/01 01:34:45;;;;;;;;;5.67;5.00;;;;;15.78;52.61;101046.09;4976778;28;45448;-53
2023/01/01 01:37:11;;;;;;;;;3.33;3.33;;;;;15.77;52.78;101034.53;4976886;28;45391;-47
2023/01/01 01:39:37;;;;;;;;;7.33;4.00;;;;;15.85;52.94;101047.94;4976897;28;45432;-45
2023/01/01 01:42:03;;;;;;;;;6.00;4.00;;;;;15.83;52.75;101041.88;4976426;28;47438;-52
2023/01/01 01:44:53;;;;;;;;;5.00;5.00;;;;;15.82;53.20;101071.56;4976603;28;45400;-53
2023/01/01 01:47:44;;;;;;;;;7.00;4.00;;;;;15.81;53.27;101075.28;4976832;28;45445;-43
2023/01/01 01:50:15;;;;;;;;;5.00;3.00;;;;;15.81;53.23;101064.56;4976280;28;45497;-43
2023/01/01 01:52:50;;;;;;;;;4.33;4.33;;;;;15.79;53.49;101070.06;4976339;28;47438;-44
2023/01/01 01:55:15;;;;;;;;;5.00;5.00;;;;;15.79;53.45;101077.28;4976463;28;45346;-43
2023/01/01 01:57:41;;;;;;;;;8.00;5.67;;;;;15.78;53.64;101063.03;4976832;28;45404;-48
2023/01/01 02:00:08;;;;;;;;;8.00;5.00;;;;;15.78;53.92;101080.97;4976847;28;45470;-44
2023/01/01 02:02:52;;;;;;;;;5.00;4.00;;;;;15.75;53.88;101090.19;4976237;28;45361;-54
2023/01/01 02:05:19;;;;;;;;;4.33;4.00;;;;;15.76;54.14;101089.22;4976436;28;45337;-53
2023/01/01 02:07:44;;;;;;;;;5.67;5.00;;;;;15.76;53.94;101093.72;4976541;28;45432;-51
2023/01/01 02:10:10;;;;;;;;;4.00;3.00;;;;;15.75;54.31;101078.63;4976377;28;45411;-53
2023/01/01 02:12:35;;;;;;;;;12.00;6.00;;;;;15.74;54.15;101096.56;4977866;28;45462;-49
2023/01/01 02:15:01;;;;;;;;;5.00;4.00;;;;;15.71;54.34;101078.13;4976297;28;45236;-49
2023/01/01 02:17:57;;;;;;;;;4.33;4.33;;;;;15.70;54.40;101087.19;4976290;28;45360;-51
2023/01/01 02:20:27;;;;;;;;;5.00;3.00;;;;;15.69;54.71;101093.56;4976532;28;45484;-54
2023/01/01 02:23:21;;;;;;;;;6.00;4.00;;;;;15.67;54.61;101111.66;4976200;28;46081;-54
2023/01/01 02:25:56;;;;;;;;;3.33;3.33;;;;;15.67;55.07;101099.13;4976131;28;45313;-52
2023/01/01 02:28:36;;;;;;;;;6.33;5.00;;;;;15.68;54.85;101100.78;4974973;28;45421;-54
2023/01/01 02:31:03;;;;;;;;;9.00;5.00;;;;;15.67;54.84;101100.94;4976150;28;45421;-53
2023/01/01 02:33:29;;;;;;;;;10.67;5.00;;;;;15.63;55.21;101096.91;4975818;28;46389;-52
2023/01/01 02:36:00;;;;;;;;;5.00;5.00;;;;;15.63;55.19;101097.75;4977517;28;45352;-51
2023/01/01 02:38:56;;;;;;;;;9.67;5.33;;;;;15.61;55.52;101106.97;4976022;28;45272;-48
2023/01/01 02:41:38;;;;;;;;;6.33;6.33;;;;;15.62;55.47;101128.25;5016569;28;45534;-52
2023/01/01 02:44:03;;;;;;;;;8.00;6.33;;;;;15.61;55.58;101115.84;5015624;28;45623;-53
2023/01/01 02:46:34;;;;;;;;;5.33;3.33;;;;;15.60;55.65;101116.88;5016187;28;45363;-54
2023/01/01 02:49:00;;;;;;;;;4.00;4.00;;;;;15.61;55.67;101117.69;5016267;28;45472;-54
2023/01/01 02:51:32;;;;;;;;;5.67;5.67;;;;;15.61;55.61;101117.69;5016116;28;45496;-49
2023/01/01 02:54:15;;;;;;;;;6.67;5.00;;;;;15.57;56.02;101125.25;5015874;28;45428;-51
2023/01/01 02:56:46;;;;;;;;;5.00;4.33;;;;;15.55;55.82;101135.31;5016066;28;45409;-52
2023/01/01 03:02:40;;;;;;;;;7.33;6.00;;;;;15.48;56.33;101121.75;5016008;28;45291;-53
2023/01/01 03:06:21;;;;;;;;;7.33;4.33;;;;;15.53;56.43;101128.44;5015636;28;45409;-53
2023/01/01 03:08:35;;;;;;;;;8.67;7.67;;;;;15.51;56.47;101131.28;5015630;28;45359;-52
2023/01/01 03:11:06;;;;;;;;;19.67;15.00;;;;;15.51;56.34;101138.50;5015646;28;45476;-54
2023/01/01 03:13:34;;;;;;;;;10.67;8.00;;;;;15.50;56.27;101134.13;5016048;28;45454;-51
2023/01/01 03:16:11;;;;;;;;;14.33;11.00;;;;;15.49;56.36;101130.63;5015439;28;46213;-47
2023/01/01 03:19:09;;;;;;;;;13.00;11.00;;;;;15.50;56.69;101126.09;4981022;28;45373;-53
2023/01/01 03:22:04;;;;;;;;;12.00;5.00;;;;;15.50;56.78;101118.88;4975611;28;45436;-54
2023/01/01 03:24:42;;;;;;;;;9.33;6.67;;;;;15.48;56.66;101139.66;4973496;28;45264;-51
2023/01/01 03:27:24;;;;;;;;;5.33;4.00;;;;;15.37;56.93;101124.75;4975433;28;45294;-49
2023/01/01 03:29:52;;;;;;;;;5.00;5.00;;;;;15.46;56.79;101144.34;4975407;28;45479;-52
2023/01/01 03:32:58;;;;;;;;;8.33;3.67;;;;;15.44;56.89;101143.69;4975361;28;45415;-53
2023/01/01 03:35:15;;;;;;;;;10.33;5.67;;;;;15.41;57.03;101128.78;4975408;28;45465;-51
2023/01/01 03:37:44;;;;;;;;;9.00;6.00;;;;;15.39;57.18;101151.41;4975138;28;45278;-51
2023/01/01 03:40:13;;;;;;;;;9.33;5.00;;;;;15.38;57.52;101160.44;4974752;28;45352;-51
2023/01/01 03:42:48;;;;;;;;;5.67;3.33;;;;;15.35;57.42;101156.25;4975234;28;45326;-52
2023/01/01 03:45:27;;;;;;;;;10.67;4.33;;;;;15.36;57.66;101165.13;4975573;28;45169;-53
2023/01/01 03:47:53;;;;;;;;;4.67;4.67;;;;;15.39;57.55;101156.78;4974646;28;45345;-53
2023/01/01 03:50:24;;;;;;;;;7.00;5.00;;;;;15.37;57.63;101156.09;4974972;28;45316;-51
2023/01/01 03:53:16;;;;;;;;;7.00;4.00;;;;;15.33;57.83;101154.75;4975128;28;45472;-48
2023/01/01 03:55:48;;;;;;;;;12.67;5.00;;;;;15.35;57.56;101163.47;4975280;28;45283;-52
2023/01/01 03:58:25;;;;;;;;;8.00;5.00;;;;;15.32;58.14;101158.44;4974859;28;45365;-54
2023/01/01 04:01:17;;;;;;;;;4.67;4.33;;;;;15.30;58.14;101171.19;4974927;28;45414;-54
2023/01/01 04:03:42;;;;;;;;;13.00;4.00;;;;;15.29;58.21;101162.28;4975232;28;46133;-53
2023/01/01 04:06:11;;;;;;;;;6.33;5.00;;;;;15.30;58.13;101172.03;4975050;28;45443;-53
2023/01/01 04:08:37;;;;;;;;;7.00;4.33;;;;;15.30;58.56;101173.88;4974682;28;45433;-49
2023/01/01 04:12:00;;;;;;;;;4.67;4.67;;;;;15.29;58.35;101177.53;4974794;28;45442;-47
2023/01/01 04:13:54;;;;;;;;;5.33;5.00;;;;;15.28;58.24;101192.78;4975008;28;45392;-53
2023/01/01 04:16:20;;;;;;;;;6.00;4.33;;;;;15.23;58.71;101187.91;4974887;28;45860;-52
2023/01/01 04:18:45;;;;;;;;;6.67;4.33;;;;;15.25;58.80;101166.28;4974966;28;47872;-53
2023/01/01 04:21:11;;;;;;;;;4.00;4.00;;;;;15.23;58.68;101185.25;4974670;28;45374;-52
2023/01/01 04:23:37;;;;;;;;;7.67;5.33;;;;;15.23;58.96;101184.41;4976097;28;45449;-52
2023/01/01 04:26:02;;;;;;;;;8.00;5.00;;;;;15.21;59.14;101187.25;4974668;28;45260;-52
2023/01/01 04:28:27;;;;;;;;;10.67;4.00;;;;;15.22;59.00;101190.78;4974581;28;47042;-52
2023/01/01 04:30:53;;;;;;;;;8.67;5.00;;;;;15.22;58.67;101196.13;4974777;28;45248;-53
2023/01/01 04:33:18;;;;;;;;;7.00;5.33;;;;;15.21;59.23;101194.44;4973301;28;45232;-53
2023/01/01 04:35:43;;;;;;;;;5.00;4.67;;;;;15.20;59.28;101204.31;4974874;28;45387;-52
2023/01/01 04:38:12;;;;;;;;;6.33;4.67;;;;;15.20;58.83;101207.00;4974352;28;49280;-53
2023/01/01 04:40:38;;;;;;;;;3.67;3.67;;;;;15.19;59.16;101205.34;4974355;28;45399;-53
2023/01/01 04:43:03;;;;;;;;;8.33;5.00;;;;;15.19;59.38;101196.47;4974612;28;45514;-53
2023/01/01 04:45:29;;;;;;;;;3.67;3.33;;;;;15.13;59.33;101194.44;4974546;28;45467;-52
2023/01/01 04:47:54;;;;;;;;;6.33;4.00;;;;;15.14;59.41;101196.97;4973602;28;45342;-54
2023/01/01 04:50:19;;;;;;;;;8.00;4.00;;;;;15.11;59.63;101194.59;4974741;28;45280;-53
2023/01/01 04:52:45;;;;;;;;;3.33;3.33;;;;;15.11;59.64;101202.63;4977579;28;45531;-49
2023/01/01 04:55:10;;;;;;;;;9.00;5.00;;;;;15.05;59.76;101197.94;4977787;28;45311;-53
2023/01/01 04:57:36;;;;;;;;;5.33;4.00;;;;;15.08;59.73;101208.31;4977194;28;45988;-52
2023/01/01 05:00:01;;;;;;;;;7.33;5.00;;;;;15.07;60.02;101195.94;4977311;28;45469;-53
2023/01/01 05:02:26;;;;;;;;;7.33;5.00;;;;;15.09;60.23;101204.66;4976047;28;45341;-49
2023/01/01 05:04:52;;;;;;;;;6.00;4.67;;;;;15.09;59.70;101199.31;4977569;28;45378;-53
2023/01/01 05:07:17;;;;;;;;;5.67;3.67;;;;;15.07;60.22;101220.03;4977200;28;45361;-52
2023/01/01 05:09:42;;;;;;;;;5.67;3.00;;;;;15.07;60.45;101198.59;4977101;28;45300;-50
2023/01/01 05:12:07;;;;;;;;;7.67;3.00;;;;;15.07;60.33;101205.81;4976915;28;48916;-54
2023/01/01 05:14:33;;;;;;;;;9.33;6.00;;;;;15.06;60.17;101212.19;4977019;28;45902;-51
2023/01/01 05:16:58;;;;;;;;;4.67;4.67;;;;;15.05;60.40;101223.91;4976771;28;48526;-45
2023/01/01 05:19:23;;;;;;;;;4.67;3.00;;;;;15.06;60.32;101230.94;4977089;28;45289;-51
2023/01/01 05:21:49;;;;;;;;;7.67;4.00;;;;;15.04;60.89;101219.53;4977143;28;45211;-52
2023/01/01 05:24:14;;;;;;;;;8.00;3.33;;;;;15.05;60.93;101238.16;4977304;28;45424;-52
2023/01/01 05:26:42;;;;;;;;;4.67;4.00;;;;;15.05;60.45;101240.81;4977011;28;45355;-50
2023/01/01 05:29:08;;;;;;;;;10.00;6.33;;;;;15.04;61.03;101224.88;4976893;28;45444;-52
2023/01/01 05:31:34;;;;;;;;;9.33;4.67;;;;;15.03;60.82;101258.06;4976909;28;45386;-50
2023/01/01 05:34:01;;;;;;;;;9.00;4.00;;;;;15.01;60.99;101255.53;4992194;28;45533;-51
2023/01/01 05:36:29;;;;;;;;;3.67;3.67;;;;;15.06;60.88;101247.00;4976532;28;47218;-51
2023/01/01 05:38:55;;;;;;;;;7.67;5.00;;;;;15.05;60.90;101246.19;4976752;28;45350;-49
2023/01/01 05:41:22;;;;;;;;;11.67;4.33;;;;;15.03;61.06;101268.75;4976781;28;45295;-53
2023/01/01 05:43:48;;;;;;;;;8.00;5.00;;;;;15.03;61.55;101258.06;4976868;28;45259;-54
2023/01/01 05:46:22;;;;;;;;;6.33;4.00;;;;;15.02;60.76;101262.56;4976800;28;45339;-49
2023/01/01 05:48:48;;;;;;;;;4.00;4.00;;;;;15.02;61.20;101267.94;4976005;28;45225;-46
2023/01/01 05:51:25;;;;;;;;;5.33;3.33;;;;;15.02;60.89;101281.31;4976557;28;45430;-42
2023/01/01 05:53:52;;;;;;;;;5.00;4.00;;;;;14.98;61.05;101272.78;4976895;28;45513;-43
2023/01/01 05:56:17;;;;;;;;;6.00;5.00;;;;;14.99;60.98;101276.28;4976450;28;45334;-51
2023/01/01 05:58:43;;;;;;;;;7.67;5.00;;;;;14.97;61.10;101281.81;4977414;28;48675;-42
2023/01/01 06:01:14;;;;;;;;;5.00;5.00;;;;;14.96;61.60;101266.75;4976541;28;45165;-52
2023/01/01 06:03:41;;;;;;;;;6.00;4.00;;;;;14.94;61.46;101287.50;4976659;28;45538;-50
2023/01/01 06:06:09;;;;;;;;;4.67;4.00;;;;;14.93;61.44;101276.94;4976504;28;46036;-52
2023/01/01 06:08:34;;;;;;;;;5.67;5.00;;;;;14.84;61.52;101257.34;4976470;28;45211;-44
2023/01/01 06:11:01;;;;;;;;;6.33;3.67;;;;;14.91;61.41;101266.38;4976393;28;45278;-50
2023/01/01 06:13:27;;;;;;;;;6.33;4.33;;;;;14.88;61.52;101271.25;4976921;28;45364;-50
2023/01/01 06:15:56;;;;;;;;;4.00;3.33;;;;;14.83;61.73;101252.13;4976159;28;46245;-52
2023/01/01 06:18:23;;;;;;;;;6.67;4.00;;;;;14.81;61.86;101257.66;4976171;28;45391;-51
2023/01/01 06:20:49;;;;;;;;;5.33;4.67;;;;;14.81;62.16;101265.69;4976425;28;45324;-48
2023/01/01 06:23:14;;;;;;;;;2.67;2.33;;;;;14.80;62.47;101266.69;4976594;28;45378;-47
2023/01/01 06:25:40;;;;;;;;;3.33;3.33;;;;;14.80;62.27;101255.16;4976158;28;46984;-47
2023/01/01 06:28:05;;;;;;;;;3.33;3.00;;;;;14.79;62.26;101254.31;4976380;28;45326;-51
2023/01/01 06:30:33;;;;;;;;;5.00;4.00;;;;;14.76;62.65;101259.97;4976222;28;45360;-47
2023/01/01 06:32:59;;;;;;;;;6.33;6.33;;;;;14.76;62.30;101241.22;4976477;28;45467;-50
2023/01/01 06:35:24;;;;;;;;;7.67;3.67;;;;;14.76;62.20;101237.72;4975887;28;47424;-52
2023/01/01 06:37:49;;;;;;;;;5.33;3.00;;;;;14.76;62.41;101257.31;4974613;28;45448;-53
2023/01/01 06:40:15;;;;;;;;;8.00;3.67;;;;;14.78;62.48;101251.78;4976349;28;45346;-52
2023/01/01 06:42:40;;;;;;;;;4.33;4.33;;;;;14.77;62.56;101248.25;4976122;28;45371;-52
2023/01/01 06:45:06;;;;;;;;;7.00;4.00;;;;;14.79;62.40;101257.00;4975934;28;46125;-51
2023/01/01 06:47:35;;;;;;;;;7.00;4.00;;;;;14.80;62.35;101264.00;4975811;28;45295;-51
2023/01/01 06:50:01;;;;;;;;;7.33;5.33;;;;;14.78;62.90;101276.72;4975904;28;45533;-49
2023/01/01 06:52:27;;;;;;;;;4.00;3.00;;;;;14.69;62.81;101267.81;4976084;28;45350;-50
2023/01/01 06:54:52;;;;;;;;;5.67;4.00;;;;;14.73;62.88;101284.41;4975302;28;52208;-51
2023/01/01 06:57:17;;;;;;;;;5.33;3.67;;;;;14.77;62.78;101287.59;4975810;28;45406;-53
2023/01/01 06:59:43;;;;;;;;;3.00;3.00;;;;;14.77;62.62;101282.25;4975744;28;45359;-48
2023/01/01 07:02:10;;;;;;;;;4.00;2.67;;;;;14.75;63.00;101286.91;4975942;28;45450;-53
2023/01/01 07:04:36;;;;;;;;;8.00;4.00;;;;;14.77;63.08;101295.63;4975474;28;46209;-53
2023/01/01 07:07:01;;;;;;;;;7.00;4.00;;;;;14.78;62.82;101308.84;4975503;28;45471;-50
2023/01/01 07:09:26;;;;;;;;;7.67;3.33;;;;;14.78;63.10;101308.00;4975996;28;45318;-52
2023/01/01 07:11:52;;;;;;;;;5.00;3.00;;;;;14.78;62.91;101306.16;4975909;28;45399;-43
2023/01/01 07:14:17;;;;;;;;;5.00;2.67;;;;;14.77;63.18;101306.34;4974717;28;46296;-46
2023/01/01 07:16:42;;;;;;;;;6.00;4.33;;;;;14.78;63.20;101313.38;4975744;28;45428;-53
2023/01/01 07:19:07;;;;;;;;;5.00;3.67;;;;;14.80;63.08;101322.09;4975634;28;45148;-53
2023/01/01 07:21:42;;;;;;;;;4.67;4.00;;;;;14.78;63.54;101327.59;4975766;28;45461;-50
2023/01/01 07:24:11;;;;;;;;;4.67;2.33;;;;;14.77;63.19;101328.59;4975216;28;45237;-51
2023/01/01 07:26:36;;;;;;;;;4.00;3.00;;;;;14.77;63.26;101322.41;4975448;28;45290;-53
2023/01/01 07:29:02;;;;;;;;;7.00;4.00;;;;;14.76;63.51;101326.09;4975583;28;45441;-48
2023/01/01 07:31:27;;;;;;;;;3.00;3.00;;;;;14.77;63.67;101336.63;4975509;28;45315;-46
2023/01/01 07:33:52;;;;;;;;;2.67;2.33;;;;;14.72;63.50;101334.44;4975416;28;47156;-51
2023/01/01 07:36:18;;;;;;;;;4.00;4.00;;;;;14.76;63.55;101348.34;4975458;28;45361;-52
2023/01/01 07:38:43;;;;;;;;;7.00;4.00;;;;;14.75;63.87;101348.50;4975458;28;45465;-52
2023/01/01 07:41:08;;;;;;;;;6.00;2.33;;;;;14.76;63.69;101360.91;4975511;28;45404;-49
2023/01/01 07:43:34;;;;;;;;;7.33;3.67;;;;;14.74;64.06;101363.72;4975254;28;46171;-53
2023/01/01 07:46:00;;;;;;;;;5.33;5.00;;;;;14.73;63.99;101359.38;4975257;28;45448;-51
2023/01/01 07:48:26;;;;;;;;;5.00;3.00;;;;;14.66;63.93;101339.59;4975101;28;45355;-51
2023/01/01 07:50:51;;;;;;;;;9.33;4.00;;;;;14.70;64.08;101348.97;4975205;28;45585;-51
2023/01/01 07:53:16;;;;;;;;;5.67;3.33;;;;;14.66;63.56;101348.47;4974889;28;46141;-53
2023/01/01 07:55:42;;;;;;;;;2.67;2.67;;;;;14.68;64.18;101353.66;4975104;28;45185;-50
2023/01/01 07:58:10;;;;;;;;;4.00;4.00;;;;;14.69;64.05;101358.00;4975355;28;45318;-50
2023/01/01 08:00:35;;;;;;;;;5.67;3.00;;;;;14.70;63.90;101373.06;4975587;28;45240;-52
2023/01/01 08:03:00;;;;;;;;;3.33;3.33;;;;;14.70;64.16;101379.28;4974598;28;50964;-50
2023/01/01 08:05:26;;;;;;;;;7.00;2.33;;;;;14.70;63.82;101379.28;4975141;28;45249;-49
2023/01/01 08:07:51;;;;;;;;;3.33;3.00;;;;;14.71;64.02;101386.34;4975054;28;45415;-52
2023/01/01 08:10:19;;;;;;;;;5.00;3.00;;;;;14.68;63.88;101383.13;4975172;28;45436;-51
2023/01/01 08:12:44;;;;;;;;;8.00;8.00;;;;;14.69;63.92;101385.63;4974922;28;46163;-45
2023/01/01 08:15:11;;;;;;;;;4.67;3.00;;;;;14.70;64.01;101389.97;4974739;28;45286;-49
2023/01/01 08:17:37;;;;;;;;;3.00;3.00;;;;;14.68;64.06;101394.66;4974984;28;45359;-44
2023/01/01 08:20:02;;;;;;;;;9.00;5.00;;;;;14.71;64.01;101401.56;4975003;28;45408;-44
2023/01/01 08:22:28;;;;;;;;;9.00;4.67;;;;;14.71;63.85;101409.59;4974723;28;46077;-51
2023/01/01 08:24:53;;;;;;;;;8.33;5.00;;;;;14.71;63.89;101410.44;4974699;28;45392;-49
2023/01/01 08:27:18;;;;;;;;;3.00;3.00;;;;;14.72;63.79;101409.44;4974706;28;45302;-54
2023/01/01 08:29:44;;;;;;;;;4.33;2.67;;;;;14.71;63.81;101418.47;4975013;28;45382;-54
2023/01/01 08:32:13;;;;;;;;;8.67;4.67;;;;;14.70;63.81;101411.41;4974512;28;45351;-52
2023/01/01 08:34:39;;;;;;;;;11.33;5.00;;;;;14.70;63.74;101414.09;4974536;28;45375;-51
2023/01/01 08:37:05;;;;;;;;;11.00;4.00;;;;;14.66;64.25;101412.75;4974748;28;45284;-52
2023/01/01 08:39:31;;;;;;;;;11.33;4.00;;;;;14.65;64.17;101426.28;4974660;28;45318;-52
2023/01/01 08:41:56;;;;;;;;;4.67;4.00;;;;;14.66;64.17;101427.94;4974245;28;46301;-46
2023/01/01 08:44:22;;;;;;;;;8.00;4.67;;;;;14.65;64.12;101419.06;4974424;28;45334;-54
2023/01/01 08:46:47;;;;;;;;;4.33;4.00;;;;;14.65;64.20;101413.72;4974343;28;45422;-51
2023/01/01 08:49:12;;;;;;;;;4.00;4.00;;;;;14.64;64.23;101414.72;4974477;28;45265;-43
2023/01/01 08:51:37;;;;;;;;;9.00;4.00;;;;;14.62;64.36;101422.09;4973814;28;46294;-53
2023/01/01 08:54:03;;;;;;;;;8.33;8.00;;;;;14.62;64.60;101424.78;4974288;28;48471;-51
2023/01/01 08:56:28;;;;;;;;;5.00;3.00;;;;;14.62;64.35;101431.94;4974319;28;45471;-53
2023/01/01 08:58:54;;;;;;;;;12.67;4.00;;;;;14.64;64.61;101429.97;4974477;28;45357;-53
2023/01/01 09:01:24;;;;;;;;;10.00;3.00;;;;;14.63;64.55;101413.06;4974085;28;45418;-45
2023/01/01 09:03:50;;;;;;;;;5.67;4.00;;;;;14.64;64.72;101416.56;4973902;28;45445;-42
2023/01/01 09:06:15;;;;;;;;;7.00;3.67;;;;;14.63;64.39;101409.53;4972844;28;45234;-51
2023/01/01 09:08:41;;;;;;;;;4.00;3.00;;;;;14.64;64.66;101408.53;4974459;28;45324;-53
2023/01/01 09:11:06;;;;;;;;;4.00;4.00;;;;;14.64;64.92;101408.53;4973791;28;45444;-47
2023/01/01 09:13:33;;;;;;;;;4.67;3.67;;;;;14.67;64.66;101409.06;4974166;28;45335;-51
2023/01/01 09:15:58;;;;;;;;;4.33;4.33;;;;;14.67;64.46;101394.84;4974084;28;45393;-49
2023/01/01 09:18:24;;;;;;;;;7.00;3.67;;;;;14.67;64.70;101386.81;4973908;28;45484;-45
2023/01/01 09:20:50;;;;;;;;;4.33;4.00;;;;;14.64;64.86;101376.41;4973787;28;46109;-48
2023/01/01 09:23:15;;;;;;;;;8.00;4.67;;;;;14.66;65.04;101383.28;4973684;28;45282;-48
2023/01/01 09:25:40;;;;;;;;;4.67;3.33;;;;;14.66;64.82;101402.03;4973986;28;45280;-51
2023/01/01 09:28:09;;;;;;;;;5.67;3.33;;;;;14.67;64.92;101393.00;4974035;28;45291;-53
2023/01/01 09:30:35;;;;;;;;;6.00;4.33;;;;;14.67;64.71;101387.66;4973194;28;45366;-51
2023/01/01 09:33:01;;;;;;;;;10.33;6.67;;;;;14.65;65.20;101386.94;4973748;28;45453;-51
2023/01/01 09:35:27;;;;;;;;;4.67;3.33;;;;;14.66;65.09;101385.09;4973718;28;45375;-52
2023/01/01 09:37:52;;;;;;;;;7.67;4.33;;;;;14.70;64.99;101387.31;4976315;28;45362;-50
2023/01/01 09:41:01;;;;;;;;;4.33;4.33;;;;;14.70;64.73;101394.50;4976661;28;47159;-46
2023/01/01 09:43:44;;;;;;;;;3.00;3.00;;;;;14.68;64.60;101389.31;4976766;28;45386;-48
2023/01/01 09:46:11;;;;;;;;;4.00;4.00;;;;;14.56;64.82;101368.31;4976890;28;45219;-44
2023/01/01 09:48:55;;;;;;;;;5.00;3.00;;;;;14.68;64.71;101392.00;4976625;28;45470;-52
2023/01/01 09:51:23;;;;;;;;;3.67;3.67;;;;;14.69;65.05;101407.06;4976467;28;46201;-46
2023/01/01 09:54:05;;;;;;;;;4.33;3.33;;;;;14.69;64.54;101409.72;4976738;28;45350;-42
2023/01/01 09:56:34;;;;;;;;;8.33;8.33;;;;;14.71;65.32;101410.44;4976734;28;45270;-47
2023/01/01 09:59:01;;;;;;;;;6.33;5.00;;;;;14.71;65.26;101420.31;4976689;28;45520;-41
2023/01/01 10:01:48;;;;;;;;;5.00;5.00;;;;;14.70;65.30;101424.78;4976456;28;46024;-50
2023/01/01 10:04:32;;;;;;;;;10.33;5.67;;;;;14.69;65.27;101423.13;4976419;28;45415;-51
2023/01/01 10:07:42;;;;;;;;;7.00;7.00;;;;;14.68;65.10;101418.78;4976727;28;45470;-47
2023/01/01 10:10:29;;;;;;;;;7.33;5.00;;;;;14.70;65.32;101435.50;4963676;28;45325;-46
2023/01/01 10:13:06;;;;;;;;;6.00;6.00;;;;;14.67;65.04;101435.00;4976330;28;46240;-41
2023/01/01 10:15:36;;;;;;;;;8.00;8.00;;;;;14.68;65.24;101442.88;4976168;28;45455;-43
2023/01/01 10:18:16;;;;;;;;;6.67;5.67;;;;;14.59;64.92;101427.75;4976528;28;45443;-48
2023/01/01 10:20:47;;;;;;;;;6.00;6.00;;;;;14.61;65.30;101427.59;4976627;28;45294;-51
2023/01/01 10:23:21;;;;;;;;;8.33;4.33;;;;;14.60;65.27;101432.09;4976054;28;46046;-50
2023/01/01 10:25:46;;;;;;;;;3.00;3.00;;;;;14.57;65.25;101424.38;4976166;28;45252;-42
2023/01/01 10:28:50;;;;;;;;;9.00;5.67;;;;;14.58;65.50;101427.88;4975124;28;45305;-42
2023/01/01 10:31:18;;;;;;;;;5.00;5.00;;;;;14.57;65.56;101424.38;5016777;28;45416;-50
2023/01/01 10:33:45;;;;;;;;;9.00;5.00;;;;;14.57;65.41;101419.00;4999732;28;46974;-41
2023/01/01 10:36:14;;;;;;;;;7.00;7.00;;;;;14.57;65.37;101402.94;4999741;28;45526;-52
2023/01/01 10:38:40;;;;;;;;;8.00;5.00;;;;;14.57;65.45;101418.19;5016672;28;45332;-52
2023/01/01 10:41:11;;;;;;;;;5.00;5.00;;;;;14.55;65.55;101414.84;5016544;28;45372;-48
2023/01/01 10:43:36;;;;;;;;;9.33;4.00;;;;;14.54;65.63;101402.41;5016265;28;46465;-50
2023/01/01 10:46:03;;;;;;;;;4.67;3.33;;;;;14.51;65.81;101406.28;5016411;28;45883;-49
2023/01/01 10:48:32;;;;;;;;;6.00;6.00;;;;;14.53;65.69;101390.88;5015029;28;45504;-41
2023/01/01 10:50:59;;;;;;;;;8.00;4.00;;;;;14.54;65.64;101389.03;5016245;28;45507;-48
2023/01/01 10:53:30;;;;;;;;;9.00;5.00;;;;;14.55;65.28;101394.25;5015511;28;46288;-51
2023/01/01 10:56:03;;;;;;;;;7.33;5.67;;;;;14.57;65.41;101378.84;5015932;28;45293;-41
2023/01/01 10:58:34;;;;;;;;;11.67;8.00;;;;;14.58;65.58;101380.56;5016155;28;45405;-47
2023/01/01 11:01:01;;;;;;;;;6.33;4.00;;;;;14.55;65.89;101372.00;5016388;28;45376;-45
2023/01/01 11:03:27;;;;;;;;;13.67;5.67;;;;;14.50;66.03;101359.09;5015985;28;45511;-43
2023/01/01 11:06:16;;;;;;;;;9.67;5.33;;;;;14.58;65.88;101359.13;5014938;28;45262;-43
2023/01/01 11:08:48;;;;;;;;;8.67;5.33;;;;;14.51;66.19;101344.69;4978862;28;45463;-46
2023/01/01 11:11:29;;;;;;;;;7.33;4.00;;;;;14.57;65.97;101352.09;4976361;28;45479;-42
2023/01/01 11:13:58;;;;;;;;;8.33;4.33;;;;;14.59;66.33;101362.66;4975860;28;48435;-43
2023/01/01 11:16:25;;;;;;;;;8.67;7.00;;;;;14.61;66.19;101356.13;4975701;28;45363;-43
2023/01/01 11:18:51;;;;;;;;;9.33;8.00;;;;;14.54;66.04;101340.84;4975898;28;45359;-42
2023/01/01 11:21:22;;;;;;;;;7.67;5.00;;;;;14.60;66.40;101343.75;4975720;28;45762;-44
2023/01/01 11:23:51;;;;;;;;;8.33;5.33;;;;;14.60;65.92;101351.78;4975520;28;45420;-43
2023/01/01 11:26:16;;;;;;;;;10.67;7.67;;;;;14.56;66.71;101333.50;4975603;28;45471;-42
2023/01/01 11:28:57;;;;;;;;;10.00;4.00;;;;;14.51;66.03;101331.31;4975403;28;45363;-44
2023/01/01 11:31:27;;;;;;;;;8.00;6.00;;;;;14.51;66.06;101327.78;4975753;28;45267;-46
2023/01/01 11:33:55;;;;;;;;;11.00;7.33;;;;;14.48;66.27;101318.19;4975362;28;45375;-45
2023/01/01 11:36:27;;;;;;;;;13.67;8.00;;;;;14.43;66.49;101309.81;4975381;28;45324;-43
2023/01/01 11:39:15;;;;;;;;;9.67;7.67;;;;;14.38;66.32;101310.28;4975551;28;45315;-45
2023/01/01 11:41:52;;;;;;;;;9.33;7.67;;;;;14.36;67.00;101284.66;4975577;28;45391;-44